createdAt,value
2018-12-07T00:00:22.217Z,100869.62
2018-12-07T00:02:51.773Z,100869.59
2018-12-07T00:05:19.430Z,100865.25
2018-12-07T00:07:47.055Z,100870.03
2018-12-07T00:10:14.728Z,100870.53
2018-12-07T00:12:42.328Z,100867.91
2018-12-07T00:15:09.989Z,100865.22
2018-12-07T00:17:37.665Z,100856.87
2018-12-07T00:20:07.305Z,100853.44
2018-12-07T00:22:35.092Z,100849.50
2018-12-07T00:25:02.720Z,100852.16
2018-12-07T00:27:30.405Z,100853.47
2018-12-07T00:29:58.031Z,100852.12
2018-12-07T00:32:25.634Z,100853.06
2018-12-07T00:34:53.289Z,100846.94
2018-12-07T00:37:20.969Z,100849.16
2018-12-07T00:39:48.801Z,100840.37
2018-12-07T00:42:16.431Z,100841.25
2018-12-07T00:44:44.118Z,100839.88
2018-12-07T00:47:11.733Z,100843.77
2018-12-07T00:49:39.475Z,100835.46
2018-12-07T00:52:07.090Z,100835.94
2018-12-07T00:54:34.692Z,100833.74
2018-12-07T00:57:02.343Z,100835.46
2018-12-07T00:59:30.102Z,100835.46
2018-12-07T01:01:58.056Z,100835.46
2018-12-07T01:04:25.632Z,100828.39
2018-12-07T01:06:53.305Z,100823.20
2018-12-07T01:09:20.958Z,100823.68
2018-12-07T01:11:48.565Z,100816.68
2018-12-07T01:14:16.185Z,100816.68
2018-12-07T01:16:43.781Z,100815.80
2018-12-07T01:19:11.476Z,100809.28
2018-12-07T01:21:39.096Z,100818.47
2018-12-07T01:24:06.749Z,100817.55
2018-12-07T01:26:34.373Z,100818.87
2018-12-07T01:29:01.960Z,100819.30
2018-12-07T01:31:29.620Z,100814.09
2018-12-07T01:33:57.262Z,100809.68
2018-12-07T01:36:24.900Z,100817.15
2018-12-07T01:38:52.547Z,100817.55
2018-12-07T01:41:20.208Z,100811.06
2018-12-07T01:43:47.839Z,100813.22
2018-12-07T01:46:15.515Z,100818.02
2018-12-07T01:48:43.084Z,100811.46
2018-12-07T01:51:10.679Z,100813.22
2018-12-07T01:53:38.352Z,100814.13
2018-12-07T01:56:05.991Z,100804.06
2018-12-07T01:58:33.640Z,100802.75
2018-12-07T02:01:01.413Z,100808.80
2018-12-07T02:03:29.016Z,100800.05
2018-12-07T02:05:56.601Z,100799.61
2018-12-07T02:08:24.244Z,100797.32
2018-12-07T02:10:52.010Z,100790.79
2018-12-07T02:13:19.636Z,100791.62
2018-12-07T02:15:47.227Z,100796.95
2018-12-07T02:18:14.856Z,100795.57
2018-12-07T02:20:42.430Z,100797.75
2018-12-07T02:23:10.100Z,100798.66
2018-12-07T02:25:37.780Z,100794.77
2018-12-07T02:28:05.559Z,100792.55
2018-12-07T02:30:33.205Z,100785.06
2018-12-07T02:33:00.763Z,100789.01
2018-12-07T02:35:28.396Z,100784.23
2018-12-07T02:37:56.067Z,100783.82
2018-12-07T02:40:23.868Z,100781.20
2018-12-07T02:42:51.478Z,100778.98
2018-12-07T02:45:19.094Z,100778.47
2018-12-07T02:47:46.752Z,100766.28
2018-12-07T02:50:14.402Z,100762.75
2018-12-07T02:52:42.067Z,100762.75
2018-12-07T02:55:09.707Z,100766.25
2018-12-07T02:57:37.350Z,100766.21
2018-12-07T03:00:06.047Z,100764.94
2018-12-07T03:02:33.795Z,100762.75
2018-12-07T03:05:01.410Z,100756.30
2018-12-07T03:07:29.051Z,100751.84
2018-12-07T03:09:56.692Z,100742.66
2018-12-07T03:12:24.556Z,100748.81
2018-12-07T03:14:52.144Z,100741.30
2018-12-07T03:17:19.805Z,100736.49
2018-12-07T03:19:47.594Z,100733.43
2018-12-07T03:22:15.185Z,100733.94
2018-12-07T03:24:42.804Z,100728.30
2018-12-07T03:27:10.662Z,100734.78
2018-12-07T03:29:38.482Z,100743.93
2018-12-07T03:32:06.138Z,100735.18
2018-12-07T03:34:33.827Z,100738.24
2018-12-07T03:37:01.473Z,100727.67
2018-12-07T03:39:29.118Z,100735.11
2018-12-07T03:41:56.811Z,100733.39
2018-12-07T03:44:24.403Z,100731.67
2018-12-07T03:46:52.000Z,100727.67
2018-12-07T03:49:19.649Z,100721.58
2018-12-07T03:51:47.242Z,100721.11
2018-12-07T03:54:14.835Z,100721.98
2018-12-07T03:56:42.493Z,100709.77
2018-12-07T03:59:10.234Z,100711.87
2018-12-07T04:01:37.868Z,100711.80
2018-12-07T04:04:05.517Z,100715.34
2018-12-07T04:06:33.161Z,100714.46
2018-12-07T04:09:00.832Z,100713.19
2018-12-07T04:11:28.455Z,100710.56
2018-12-07T04:13:56.145Z,100711.00
2018-12-07T04:16:23.816Z,100704.51
2018-12-07T04:18:51.435Z,100706.66
2018-12-07T04:21:19.069Z,100698.34
2018-12-07T04:23:46.800Z,100701.37
2018-12-07T04:26:14.429Z,100695.72
2018-12-07T04:28:42.040Z,100687.80
2018-12-07T04:31:09.790Z,100688.67
2018-12-07T04:33:37.439Z,100689.99
2018-12-07T04:36:07.594Z,100693.42
2018-12-07T04:38:34.855Z,100685.58
2018-12-07T04:41:02.608Z,100681.20
2018-12-07T04:43:30.226Z,100683.83
2018-12-07T04:45:57.938Z,100681.60
2018-12-07T04:48:25.578Z,100681.52
2018-12-07T04:50:53.233Z,100678.38
2018-12-07T04:53:20.851Z,100678.34
2018-12-07T04:55:48.523Z,100672.66
2018-12-07T04:58:16.173Z,100675.23
2018-12-07T05:00:43.914Z,100679.10
2018-12-07T05:03:11.554Z,100672.97
2018-12-07T05:05:39.359Z,100669.03
2018-12-07T05:08:07.102Z,100667.72
2018-12-07T05:10:34.771Z,100663.27
2018-12-07T05:13:02.473Z,100666.29
2018-12-07T05:15:30.313Z,100661.91
2018-12-07T05:17:57.945Z,100666.29
2018-12-07T05:20:25.496Z,100665.02
2018-12-07T05:22:53.139Z,100662.83
2018-12-07T05:25:20.732Z,100656.22
2018-12-07T05:27:48.416Z,100652.72
2018-12-07T05:30:15.998Z,100647.42
2018-12-07T05:32:43.877Z,100639.91
2018-12-07T05:35:11.647Z,100638.08
2018-12-07T05:37:39.323Z,100632.38
2018-12-07T05:40:06.992Z,100624.90
2018-12-07T05:42:35.120Z,100635.36
2018-12-07T05:45:02.736Z,100634.09
2018-12-07T05:47:31.543Z,100632.38
2018-12-07T05:49:59.335Z,100633.18
2018-12-07T05:52:26.998Z,100624.86
2018-12-07T05:54:55.782Z,100627.05
2018-12-07T05:57:23.416Z,100617.02
2018-12-07T05:59:51.141Z,100613.95
2018-12-07T06:02:18.749Z,100606.11
2018-12-07T06:04:46.439Z,100607.42
2018-12-07T06:07:14.040Z,100603.05
2018-12-07T06:09:41.635Z,100606.98
2018-12-07T06:12:09.244Z,100596.92
2018-12-07T06:14:36.944Z,100595.56
2018-12-07T06:17:04.552Z,100595.56
2018-12-07T06:19:32.208Z,100596.92
2018-12-07T06:21:59.792Z,100599.50
2018-12-07T06:24:27.433Z,100593.37
2018-12-07T06:26:55.011Z,100587.73
2018-12-07T06:29:23.964Z,100588.29
2018-12-07T06:31:51.667Z,100588.73
2018-12-07T06:34:19.349Z,100577.43
2018-12-07T06:36:46.981Z,100579.58
2018-12-07T06:39:14.632Z,100573.93
2018-12-07T06:41:42.353Z,100572.61
2018-12-07T06:44:10.125Z,100575.28
2018-12-07T06:46:37.719Z,100566.49
2018-12-07T06:49:10.008Z,100563.07
2018-12-07T06:51:37.693Z,100560.44
2018-12-07T06:54:05.372Z,100560.44
2018-12-07T06:56:33.008Z,100543.77
2018-12-07T06:59:01.874Z,100549.85
2018-12-07T07:01:29.455Z,100542.37
2018-12-07T07:03:57.035Z,100541.41
2018-12-07T07:06:24.923Z,100539.63
2018-12-07T07:08:53.356Z,100535.20
2018-12-07T07:11:28.056Z,100531.61
2018-12-07T07:14:05.463Z,100528.47
2018-12-07T07:16:33.120Z,100524.08
2018-12-07T07:19:00.850Z,100517.42
2018-12-07T07:21:29.277Z,100511.30
2018-12-07T07:24:03.754Z,100510.86
2018-12-07T07:26:31.419Z,100497.72
2018-12-07T07:28:59.056Z,100500.30
2018-12-07T07:31:33.339Z,100494.97
2018-12-07T07:34:00.962Z,100496.19
2018-12-07T07:36:28.557Z,100493.12
2018-12-07T07:38:56.342Z,100496.23
2018-12-07T07:41:23.978Z,100492.87
2018-12-07T07:43:51.549Z,100485.03
2018-12-07T07:46:19.375Z,100490.63
2018-12-07T07:48:46.999Z,100483.58
2018-12-07T07:51:14.667Z,100487.47
2018-12-07T07:53:42.350Z,100482.22
2018-12-07T07:56:15.393Z,100471.41
2018-12-07T07:58:39.611Z,100460.55
2018-12-07T08:01:07.344Z,100460.13
2018-12-07T08:03:34.954Z,100457.45
2018-12-07T08:06:02.569Z,100451.80
2018-12-07T08:08:30.203Z,100446.94
2018-12-07T08:10:57.844Z,100448.20
2018-12-07T08:13:25.472Z,100445.98
2018-12-07T08:15:53.123Z,100438.71
2018-12-07T08:18:20.686Z,100441.78
2018-12-07T08:20:48.297Z,100436.70
2018-12-07T08:23:15.898Z,100435.39
2018-12-07T08:25:43.602Z,100431.05
2018-12-07T08:28:11.234Z,100425.67
2018-12-07T08:30:38.826Z,100422.56
2018-12-07T08:33:06.478Z,100419.02
2018-12-07T08:35:34.161Z,100415.47
2018-12-07T08:38:01.760Z,100409.25
2018-12-07T08:40:29.372Z,100414.98
2018-12-07T08:42:58.326Z,100406.97
2018-12-07T08:45:26.123Z,100403.84
2018-12-07T08:47:53.740Z,100399.95
2018-12-07T08:50:21.494Z,100393.39
2018-12-07T08:52:49.233Z,100385.95
2018-12-07T08:55:16.803Z,100383.33
2018-12-07T08:57:44.562Z,100385.06
2018-12-07T09:00:12.171Z,100378.02
2018-12-07T09:02:39.743Z,100375.45
2018-12-07T09:05:08.781Z,100376.76
2018-12-07T09:07:36.414Z,100374.13
2018-12-07T09:10:04.132Z,100369.30
2018-12-07T09:12:31.744Z,100366.67
2018-12-07T09:14:59.398Z,100362.73
2018-12-07T09:17:27.005Z,100360.89
2018-12-07T09:19:54.659Z,100353.55
2018-12-07T09:22:22.347Z,100341.30
2018-12-07T09:24:49.950Z,100332.10
2018-12-07T09:27:17.863Z,100333.37
2018-12-07T09:29:45.456Z,100328.98
2018-12-07T09:32:13.153Z,100327.27
2018-12-07T09:34:40.764Z,100324.22
2018-12-07T09:37:08.441Z,100320.36
2018-12-07T09:39:36.031Z,100313.31
2018-12-07T09:42:03.649Z,100314.63
2018-12-07T09:44:31.224Z,100306.31
2018-12-07T09:46:58.924Z,100309.38
2018-12-07T09:49:26.535Z,100299.80
2018-12-07T09:51:54.201Z,100292.83
2018-12-07T09:54:21.805Z,100298.14
2018-12-07T09:56:49.512Z,100288.08
2018-12-07T09:59:17.144Z,100287.10
2018-12-07T10:01:44.739Z,100283.16
2018-12-07T10:04:12.439Z,100267.35
2018-12-07T10:06:39.994Z,100275.81
2018-12-07T10:09:07.978Z,100260.55
2018-12-07T10:11:35.651Z,100259.66
2018-12-07T10:14:03.234Z,100254.80
2018-12-07T10:16:30.832Z,100244.34
2018-12-07T10:18:58.503Z,100242.11
2018-12-07T10:21:26.263Z,100230.81
2018-12-07T10:23:53.898Z,100230.28
2018-12-07T10:26:21.564Z,100229.45
2018-12-07T10:28:49.373Z,100221.09
2018-12-07T10:31:17.055Z,100208.88
2018-12-07T10:33:44.707Z,100202.77
2018-12-07T10:36:12.412Z,100201.39
2018-12-07T10:38:40.079Z,100197.41
2018-12-07T10:41:07.763Z,100187.77
2018-12-07T10:43:35.499Z,100189.08
2018-12-07T10:46:03.103Z,100183.44
2018-12-07T10:48:30.742Z,100180.44
2018-12-07T10:50:58.368Z,100171.25
2018-12-07T10:53:26.004Z,100161.72
2018-12-07T10:55:53.667Z,100152.95
2018-12-07T10:58:21.307Z,100138.95
2018-12-07T11:00:54.738Z,100136.77
2018-12-07T11:03:27.980Z,100129.30
2018-12-07T11:06:01.202Z,100123.13
2018-12-07T11:09:34.257Z,100114.00
2018-12-07T11:12:08.148Z,100106.06
2018-12-07T11:14:41.332Z,100102.63
2018-12-07T11:17:14.516Z,100092.54
2018-12-07T11:19:47.674Z,100086.08
2018-12-07T11:22:20.874Z,100079.12
2018-12-07T11:24:54.136Z,100072.42
2018-12-07T11:27:27.204Z,100073.23
2018-12-07T11:30:00.459Z,100063.45
2018-12-07T11:32:34.796Z,100054.73
2018-12-07T11:35:07.104Z,100052.50
2018-12-07T11:37:34.823Z,100042.05
2018-12-07T11:40:02.480Z,100043.80
2018-12-07T11:42:30.331Z,100033.30
2018-12-07T11:44:58.012Z,100028.70
2018-12-07T11:47:25.640Z,100019.56
2018-12-07T11:49:53.251Z,100022.19
2018-12-07T11:52:20.859Z,100018.52
2018-12-07T11:54:48.482Z,100013.59
2018-12-07T11:57:16.138Z,100011.40
2018-12-07T11:59:43.731Z,100005.27
2018-12-07T12:02:11.341Z,100004.89
2018-12-07T12:04:38.953Z,100002.70
2018-12-07T12:07:06.688Z,99996.53
2018-12-07T12:09:34.323Z,99981.64
2018-12-07T12:12:01.904Z,99980.77
2018-12-07T12:14:29.711Z,99979.52
2018-12-07T12:16:57.297Z,99972.50
2018-12-07T12:19:24.896Z,99967.31
2018-12-07T12:21:52.590Z,99965.08
2018-12-07T12:24:20.188Z,99964.63
2018-12-07T12:26:47.869Z,99955.82
2018-12-07T12:29:15.444Z,99949.25
2018-12-07T12:31:43.104Z,99948.36
2018-12-07T12:34:10.753Z,99942.69
2018-12-07T12:36:38.297Z,99940.66
2018-12-07T12:39:07.005Z,99927.91
2018-12-07T12:41:34.585Z,99925.62
2018-12-07T12:44:02.271Z,99929.23
2018-12-07T12:46:29.938Z,99921.35
2018-12-07T12:48:57.559Z,99918.28
2018-12-07T12:51:25.383Z,99912.09
2018-12-07T12:53:53.034Z,99901.72
2018-12-07T12:56:20.943Z,99906.08
2018-12-07T12:58:48.674Z,99899.50
2018-12-07T13:01:16.311Z,99887.69
2018-12-07T13:03:43.912Z,99885.06
2018-12-07T13:06:11.585Z,99881.57
2018-12-07T13:08:40.389Z,99881.19
2018-12-07T13:11:07.974Z,99874.41
2018-12-07T13:13:35.738Z,99872.20
2018-12-07T13:16:03.445Z,99864.55
2018-12-07T13:18:31.031Z,99846.26
2018-12-07T13:20:58.709Z,99848.73
2018-12-07T13:23:26.425Z,99843.80
2018-12-07T13:25:54.062Z,99842.81
2018-12-07T13:28:21.751Z,99830.61
2018-12-07T13:30:49.418Z,99832.45
2018-12-07T13:33:17.042Z,99824.26
2018-12-07T13:35:44.732Z,99816.88
2018-12-07T13:38:12.340Z,99803.37
2018-12-07T13:40:40.001Z,99802.59
2018-12-07T13:43:07.793Z,99786.84
2018-12-07T13:45:35.782Z,99790.17
2018-12-07T13:48:03.569Z,99779.19
2018-12-07T13:50:37.102Z,99772.23
2018-12-07T13:53:04.915Z,99772.05
2018-12-07T13:55:32.834Z,99770.67
2018-12-07T13:58:00.762Z,99767.30
2018-12-07T14:00:28.581Z,99756.96
2018-12-07T14:02:56.402Z,99756.64
2018-12-07T14:05:24.303Z,99756.64
2018-12-07T14:07:53.882Z,99749.59
2018-12-07T14:10:21.677Z,99741.39
2018-12-07T14:12:49.517Z,99741.39
2018-12-07T14:15:17.302Z,99734.95
2018-12-07T14:17:45.037Z,99729.70
2018-12-07T14:20:12.875Z,99727.94
2018-12-07T14:22:40.941Z,99723.55
2018-12-07T14:25:08.717Z,99718.75
2018-12-07T14:27:36.769Z,99707.38
2018-12-07T14:30:05.691Z,99697.42
2018-12-07T14:32:33.569Z,99684.23
2018-12-07T14:35:01.379Z,99689.16
2018-12-07T14:37:29.221Z,99688.36
2018-12-07T14:39:57.077Z,99687.38
2018-12-07T14:42:24.800Z,99685.67
2018-12-07T14:44:52.380Z,99682.59
2018-12-07T14:47:20.150Z,99684.80
2018-12-07T14:49:48.176Z,99676.48
2018-12-07T14:52:16.110Z,99677.41
2018-12-07T14:54:43.829Z,99672.98
2018-12-07T14:57:11.802Z,99671.68
2018-12-07T14:59:39.764Z,99656.47
2018-12-07T15:02:07.430Z,99650.77
2018-12-07T15:04:35.361Z,99655.55
2018-12-07T15:07:03.101Z,99653.08
2018-12-07T15:09:31.007Z,99646.96
2018-12-07T15:11:58.988Z,99632.59
2018-12-07T15:14:26.832Z,99632.08
2018-12-07T15:16:54.705Z,99619.01
2018-12-07T15:19:22.331Z,99621.22
2018-12-07T15:21:50.184Z,99615.97
2018-12-07T15:24:18.203Z,99611.20
2018-12-07T15:26:46.269Z,99607.64
2018-12-07T15:29:14.047Z,99612.90
2018-12-07T15:31:42.064Z,99602.39
2018-12-07T15:34:09.972Z,99593.20
2018-12-07T15:36:37.874Z,99588.88
2018-12-07T15:39:08.167Z,99587.57
2018-12-07T15:41:36.021Z,99584.56
2018-12-07T15:44:03.837Z,99576.27
2018-12-07T15:46:31.819Z,99571.44
2018-12-07T15:48:59.665Z,99565.64
2018-12-07T15:51:27.370Z,99557.38
2018-12-07T15:53:55.055Z,99559.20
2018-12-07T15:56:22.672Z,99562.25
2018-12-07T15:58:50.333Z,99562.25
2018-12-07T16:01:18.724Z,99540.62
2018-12-07T16:03:46.730Z,99541.08
2018-12-07T16:06:14.331Z,99536.83
2018-12-07T16:08:42.323Z,99520.14
2018-12-07T16:11:10.197Z,99517.86
2018-12-07T16:13:38.236Z,99509.57
2018-12-07T16:16:06.085Z,99506.19
2018-12-07T16:18:33.984Z,99503.55
2018-12-07T16:21:01.773Z,99506.63
2018-12-07T16:23:29.428Z,99494.50
2018-12-07T16:25:57.181Z,99493.05
2018-12-07T16:28:25.041Z,99487.32
2018-12-07T16:30:52.998Z,99483.00
2018-12-07T16:33:21.004Z,99483.07
2018-12-07T16:35:48.827Z,99467.73
2018-12-07T16:38:16.630Z,99464.62
2018-12-07T16:40:44.430Z,99453.30
2018-12-07T16:43:12.459Z,99452.74
2018-12-07T16:45:40.207Z,99446.73
2018-12-07T16:48:08.046Z,99438.86
2018-12-07T16:50:36.333Z,99435.37
2018-12-07T16:53:04.160Z,99432.19
2018-12-07T16:55:31.800Z,99421.62
2018-12-07T16:57:59.608Z,99419.55
2018-12-07T17:00:27.294Z,99409.88
2018-12-07T17:02:55.097Z,99405.11
2018-12-07T17:05:23.019Z,99404.24
2018-12-07T17:07:50.715Z,99392.61
2018-12-07T17:10:18.395Z,99392.50
2018-12-07T17:12:46.225Z,99394.23
2018-12-07T17:15:14.104Z,99390.81
2018-12-07T17:17:41.870Z,99378.92
2018-12-07T17:20:09.602Z,99367.04
2018-12-07T17:22:37.361Z,99360.09
2018-12-07T17:25:05.088Z,99364.03
2018-12-07T17:27:32.788Z,99358.68
2018-12-07T17:30:00.460Z,99353.84
2018-12-07T17:32:28.450Z,99342.85
2018-12-07T17:34:56.255Z,99344.72
2018-12-07T17:37:24.067Z,99334.22
2018-12-07T17:39:51.808Z,99326.42
2018-12-07T17:42:19.624Z,99328.19
2018-12-07T17:44:47.369Z,99321.62
2018-12-07T17:47:15.082Z,99319.86
2018-12-07T17:49:42.860Z,99316.67
2018-12-07T17:52:10.761Z,99312.84
2018-12-07T17:54:38.486Z,99307.11
2018-12-07T17:57:06.441Z,99308.91
2018-12-07T17:59:34.266Z,99309.80
2018-12-07T18:02:01.888Z,99312.43
2018-12-07T18:04:29.573Z,99299.30
2018-12-07T18:06:57.476Z,99294.05
2018-12-07T18:09:25.236Z,99292.37
2018-12-07T18:11:52.932Z,99283.97
2018-12-07T18:14:20.683Z,99288.42
2018-12-07T18:16:48.400Z,99274.55
2018-12-07T18:19:16.116Z,99267.58
2018-12-07T18:21:43.884Z,99270.13
2018-12-07T18:24:11.632Z,99262.10
2018-12-07T18:26:39.460Z,99259.48
2018-12-07T18:29:07.417Z,99260.34
2018-12-07T18:31:35.411Z,99254.67
2018-12-07T18:34:03.198Z,99244.28
2018-12-07T18:36:31.010Z,99242.04
2018-12-07T18:38:59.026Z,99228.98
2018-12-07T18:41:27.114Z,99227.67
2018-12-07T18:43:55.085Z,99224.19
2018-12-07T18:46:23.040Z,99216.72
2018-12-07T18:48:50.965Z,99211.36
2018-12-07T18:51:18.767Z,99205.73
2018-12-07T18:53:46.593Z,99201.88
2018-12-07T18:56:14.441Z,99196.17
2018-12-07T18:58:42.301Z,99191.30
2018-12-07T19:01:11.004Z,99196.62
2018-12-07T19:03:39.073Z,99193.17
2018-12-07T19:06:07.030Z,99180.95
2018-12-07T19:08:34.716Z,99180.42
2018-12-07T19:11:02.798Z,99173.41
2018-12-07T19:13:30.622Z,99165.13
2018-12-07T19:15:58.505Z,99159.50
2018-12-07T19:18:26.309Z,99200.11
2018-12-07T19:20:54.215Z,99263.56
2018-12-07T19:23:22.258Z,99266.06
2018-12-07T19:25:49.989Z,99266.66
2018-12-07T19:28:18.023Z,99278.24
2018-12-07T19:30:45.977Z,99279.32
2018-12-07T19:33:14.163Z,99286.96
2018-12-07T19:35:42.119Z,99290.00
2018-12-07T19:38:09.960Z,99286.89
2018-12-07T19:40:37.722Z,99289.69
2018-12-07T19:43:05.637Z,99300.85
2018-12-07T19:45:33.434Z,99299.72
2018-12-07T19:48:01.530Z,99304.10
2018-12-07T19:50:29.353Z,99315.05
2018-12-07T19:52:57.053Z,99325.55
2018-12-07T19:55:24.969Z,99326.09
2018-12-07T19:57:52.608Z,99339.35
2018-12-07T20:00:20.409Z,99339.53
2018-12-07T20:02:50.433Z,99343.56
2018-12-07T20:05:18.576Z,99352.38
2018-12-07T20:07:46.341Z,99358.52
2018-12-07T20:10:13.962Z,99364.69
2018-12-07T20:12:41.789Z,99370.11
2018-12-07T20:15:09.730Z,99383.30
2018-12-07T20:17:37.481Z,99381.50
2018-12-07T20:20:06.104Z,99391.61
2018-12-07T20:22:33.923Z,99387.67
2018-12-07T20:25:01.687Z,99395.30
2018-12-07T20:27:29.337Z,99403.09
2018-12-07T20:29:57.272Z,99409.34
2018-12-07T20:32:25.044Z,99409.48
2018-12-07T20:34:52.670Z,99422.34
2018-12-07T20:37:20.414Z,99432.89
2018-12-07T20:39:48.446Z,99448.12
2018-12-07T20:42:16.192Z,99450.81
2018-12-07T20:44:44.184Z,99456.66
2018-12-07T20:47:11.983Z,99460.59
2018-12-07T20:49:39.872Z,99463.34
2018-12-07T20:52:08.056Z,99462.58
2018-12-07T20:54:35.834Z,99462.04
2018-12-07T20:57:03.642Z,99469.97
2018-12-07T20:59:31.501Z,99470.96
2018-12-07T21:01:59.265Z,99473.27
2018-12-07T21:04:37.653Z,99478.57
2018-12-07T21:07:21.126Z,99482.57
2018-12-07T21:09:48.809Z,99490.18
2018-12-07T21:12:49.727Z,99493.66
2018-12-07T21:15:17.344Z,99499.96
2018-12-07T21:17:45.254Z,99507.38
2018-12-07T21:20:16.407Z,99500.50
2018-12-07T21:22:44.151Z,99499.70
2018-12-07T21:25:11.844Z,99504.17
2018-12-07T21:27:39.734Z,99512.61
2018-12-07T21:30:32.068Z,99515.72
2018-12-07T21:32:59.893Z,99515.84
2018-12-07T21:35:27.855Z,99520.63
2018-12-07T21:37:55.632Z,99524.14
2018-12-07T21:40:28.764Z,99533.80
2018-12-07T21:42:56.801Z,99520.75
2018-12-07T21:45:24.870Z,99527.63
2018-12-07T21:48:22.451Z,99545.27
2018-12-07T21:50:55.913Z,99548.94
2018-12-07T21:53:23.591Z,99545.52
2018-12-07T21:55:51.218Z,99551.73
2018-12-07T21:58:18.875Z,99562.22
2018-12-07T22:00:46.777Z,99557.45
2018-12-07T22:03:14.967Z,99547.42
2018-12-07T22:05:42.941Z,99553.20
2018-12-07T22:08:10.868Z,99567.14
2018-12-07T22:10:38.816Z,99570.30
2018-12-07T22:13:06.746Z,99579.47
2018-12-07T22:15:34.588Z,99573.36
2018-12-07T22:18:02.397Z,99581.61
2018-12-07T22:20:30.203Z,99582.59
2018-12-07T22:22:57.960Z,99585.27
2018-12-07T22:25:25.848Z,99583.63
2018-12-07T22:27:53.602Z,99594.11
2018-12-07T22:30:21.424Z,99607.69
2018-12-07T22:32:49.216Z,99610.75
2018-12-07T22:35:17.190Z,99618.34
2018-12-07T22:37:44.985Z,99614.41
2018-12-07T22:40:12.919Z,99623.20
2018-12-07T22:42:40.868Z,99621.91
2018-12-07T22:45:08.556Z,99626.28
2018-12-07T22:47:36.222Z,99623.66
2018-12-07T22:50:03.904Z,99620.66
2018-12-07T22:52:31.500Z,99622.83
2018-12-07T22:54:59.121Z,99621.47
2018-12-07T22:57:26.675Z,99626.27
2018-12-07T22:59:54.297Z,99621.05
2018-12-07T23:02:21.872Z,99629.83
2018-12-07T23:04:49.581Z,99625.51
2018-12-07T23:07:17.243Z,99623.42
2018-12-07T23:09:44.851Z,99635.98
2018-12-07T23:12:12.500Z,99641.67
2018-12-07T23:14:40.087Z,99635.66
2018-12-07T23:17:07.689Z,99642.65
2018-12-07T23:19:35.277Z,99651.43
2018-12-07T23:22:03.012Z,99648.75
2018-12-07T23:24:30.631Z,99655.25
2018-12-07T23:26:58.236Z,99666.65
2018-12-07T23:29:25.883Z,99660.98
2018-12-07T23:31:53.560Z,99660.98
2018-12-07T23:34:21.219Z,99669.71
2018-12-07T23:36:48.836Z,99670.09
2018-12-07T23:39:16.439Z,99669.27
2018-12-07T23:41:44.095Z,99687.13
2018-12-07T23:44:11.860Z,99681.11
2018-12-07T23:46:39.515Z,99682.00
2018-12-07T23:49:07.161Z,99685.16
2018-12-07T23:51:35.665Z,99679.05
2018-12-07T23:54:03.433Z,99687.33
2018-12-07T23:56:31.133Z,99677.23
2018-12-07T23:58:58.734Z,99684.23
